createdAt,value
2019-02-17T00:00:53.992Z,100910.24
2019-02-17T00:03:57.442Z,100907.67
2019-02-17T00:07:00.409Z,100894.52
2019-02-17T00:10:04.512Z,100897.58
2019-02-17T00:13:07.557Z,100893.59
2019-02-17T00:16:10.517Z,100893.58
2019-02-17T00:19:13.848Z,100883.44
2019-02-17T00:22:16.821Z,100879.08
2019-02-17T00:25:20.514Z,100878.24
2019-02-17T00:28:23.612Z,100871.67
2019-02-17T00:31:26.949Z,100871.68
2019-02-17T00:34:30.988Z,100872.13
2019-02-17T00:37:34.043Z,100870.38
2019-02-17T00:40:37.020Z,100869.45
2019-02-17T00:43:39.960Z,100864.64
2019-02-17T00:46:42.922Z,100863.16
2019-02-17T00:49:46.273Z,100868.07
2019-02-17T00:52:49.602Z,100866.88
2019-02-17T00:55:53.283Z,100873.91
2019-02-17T00:58:56.247Z,100871.26
2019-02-17T01:01:59.991Z,100866.41
2019-02-17T01:05:03.119Z,100858.92
2019-02-17T01:08:06.380Z,100860.14
2019-02-17T01:11:10.429Z,100855.28
2019-02-17T01:14:13.932Z,100850.08
2019-02-17T01:17:16.883Z,100849.70
2019-02-17T01:20:19.824Z,100857.62
2019-02-17T01:23:23.214Z,100861.08
2019-02-17T01:26:26.528Z,100862.41
2019-02-17T01:29:29.895Z,100865.54
2019-02-17T01:32:33.218Z,100864.21
2019-02-17T01:35:36.536Z,100862.00
2019-02-17T01:38:39.873Z,100859.70
2019-02-17T01:41:43.951Z,100854.97
2019-02-17T01:44:46.967Z,100855.42
2019-02-17T01:47:50.348Z,100855.77
2019-02-17T01:50:53.692Z,100861.46
2019-02-17T01:53:56.987Z,100851.88
2019-02-17T01:57:00.321Z,100853.11
2019-02-17T02:00:04.433Z,100857.20
2019-02-17T02:03:09.668Z,100851.91
2019-02-17T02:06:12.652Z,100854.49
2019-02-17T02:09:15.600Z,100853.16
2019-02-17T02:12:18.668Z,100846.56
2019-02-17T02:15:21.630Z,100843.89
2019-02-17T02:18:24.571Z,100850.11
2019-02-17T02:21:27.576Z,100843.04
2019-02-17T02:24:30.537Z,100837.76
2019-02-17T02:27:33.820Z,100838.64
2019-02-17T02:30:36.778Z,100841.24
2019-02-17T02:33:39.729Z,100826.77
2019-02-17T02:36:43.081Z,100818.80
2019-02-17T02:39:46.020Z,100828.53
2019-02-17T02:42:49.740Z,100821.38
2019-02-17T02:45:53.110Z,100819.20
2019-02-17T02:48:56.321Z,100820.57
2019-02-17T02:51:59.665Z,100811.35
2019-02-17T02:55:02.713Z,100816.25
2019-02-17T02:58:05.766Z,100810.50
2019-02-17T03:01:10.437Z,100811.42
2019-02-17T03:04:13.719Z,100811.36
2019-02-17T03:07:19.675Z,100810.53
2019-02-17T03:10:22.608Z,100804.34
2019-02-17T03:13:25.958Z,100808.65
2019-02-17T03:16:29.190Z,100799.83
2019-02-17T03:19:32.278Z,100801.58
2019-02-17T03:22:35.251Z,100805.22
2019-02-17T03:25:38.529Z,100796.83
2019-02-17T03:28:42.219Z,100797.72
2019-02-17T03:31:45.474Z,100792.50
2019-02-17T03:34:48.456Z,100796.27
2019-02-17T03:37:51.855Z,100791.94
2019-02-17T03:40:54.796Z,100798.45
2019-02-17T03:43:58.131Z,100798.12
2019-02-17T03:47:01.393Z,100793.64
2019-02-17T03:50:05.157Z,100794.84
2019-02-17T03:53:08.088Z,100792.61
2019-02-17T03:56:11.844Z,100797.48
2019-02-17T03:59:15.911Z,100791.86
2019-02-17T04:02:18.845Z,100793.19
2019-02-17T04:05:21.801Z,100790.80
2019-02-17T04:08:25.368Z,100787.34
2019-02-17T04:11:28.667Z,100785.53
2019-02-17T04:14:31.631Z,100778.69
2019-02-17T04:17:34.596Z,100780.14
2019-02-17T04:20:37.909Z,100774.66
2019-02-17T04:23:40.843Z,100770.67
2019-02-17T04:26:43.827Z,100768.23
2019-02-17T04:29:46.760Z,100766.62
2019-02-17T04:32:50.084Z,100762.25
2019-02-17T04:35:53.633Z,100758.48
2019-02-17T04:38:57.635Z,100756.79
2019-02-17T04:42:00.597Z,100754.73
2019-02-17T04:45:04.213Z,100753.95
2019-02-17T04:48:09.124Z,100756.14
2019-02-17T04:51:12.086Z,100755.16
2019-02-17T04:54:15.361Z,100749.29
2019-02-17T04:57:18.327Z,100748.78
2019-02-17T05:00:21.289Z,100749.75
2019-02-17T05:03:24.231Z,100743.41
2019-02-17T05:06:27.193Z,100742.08
2019-02-17T05:09:30.124Z,100747.22
2019-02-17T05:12:33.080Z,100750.92
2019-02-17T05:15:37.183Z,100752.46
2019-02-17T05:18:40.137Z,100749.56
2019-02-17T05:21:43.497Z,100754.84
2019-02-17T05:24:46.831Z,100755.70
2019-02-17T05:27:49.791Z,100755.14
2019-02-17T05:30:53.544Z,100748.17
2019-02-17T05:33:57.350Z,100747.95
2019-02-17T05:37:00.314Z,100737.54
2019-02-17T05:40:03.739Z,100735.00
2019-02-17T05:43:07.117Z,100736.02
2019-02-17T05:46:10.079Z,100733.49
2019-02-17T05:49:13.039Z,100725.14
2019-02-17T05:52:16.371Z,100720.28
2019-02-17T05:55:19.306Z,100723.80
2019-02-17T05:58:22.356Z,100730.42
2019-02-17T06:01:25.670Z,100726.39
2019-02-17T06:04:29.017Z,100720.39
2019-02-17T06:07:32.645Z,100719.92
2019-02-17T06:10:35.680Z,100721.37
2019-02-17T06:13:38.639Z,100722.94
2019-02-17T06:16:41.602Z,100725.66
2019-02-17T06:19:44.573Z,100723.29
2019-02-17T06:22:48.237Z,100721.73
2019-02-17T06:25:51.509Z,100726.48
2019-02-17T06:28:54.882Z,100731.34
2019-02-17T06:31:57.809Z,100723.59
2019-02-17T06:35:01.165Z,100723.68
2019-02-17T06:38:04.428Z,100720.84
2019-02-17T06:41:07.372Z,100719.84
2019-02-17T06:44:10.338Z,100720.50
2019-02-17T06:47:20.496Z,100717.03
2019-02-17T06:50:23.445Z,100718.73
2019-02-17T06:53:27.153Z,100716.55
2019-02-17T06:56:44.274Z,100710.66
2019-02-17T06:59:48.333Z,100707.10
2019-02-17T07:02:51.674Z,100713.30
2019-02-17T07:06:14.566Z,100712.00
2019-02-17T07:09:17.852Z,100701.57
2019-02-17T07:12:20.795Z,100706.06
2019-02-17T07:15:23.744Z,100705.16
2019-02-17T07:18:27.607Z,100704.48
2019-02-17T07:21:31.245Z,100699.45
2019-02-17T07:24:34.563Z,100700.37
2019-02-17T07:27:37.527Z,100702.13
2019-02-17T07:30:40.492Z,100693.65
2019-02-17T07:33:43.428Z,100699.13
2019-02-17T07:36:46.725Z,100703.22
2019-02-17T07:39:50.105Z,100700.96
2019-02-17T07:42:53.405Z,100694.01
2019-02-17T07:45:57.123Z,100693.97
2019-02-17T07:49:00.089Z,100698.88
2019-02-17T07:52:03.049Z,100697.50
2019-02-17T07:55:07.507Z,100702.27
2019-02-17T07:58:10.784Z,100696.63
2019-02-17T08:01:13.740Z,100695.35
2019-02-17T08:04:16.676Z,100695.91
2019-02-17T08:07:19.939Z,100695.02
2019-02-17T08:10:23.293Z,100686.27
2019-02-17T08:13:26.249Z,100694.56
2019-02-17T08:16:29.229Z,100686.65
2019-02-17T08:19:33.021Z,100685.92
2019-02-17T08:22:35.991Z,100688.55
2019-02-17T08:25:38.934Z,100684.22
2019-02-17T08:28:42.655Z,100676.72
2019-02-17T08:31:55.505Z,100680.12
2019-02-17T08:34:53.267Z,100688.39
2019-02-17T08:37:56.704Z,100675.62
2019-02-17T08:41:00.839Z,100671.20
2019-02-17T08:44:03.948Z,100666.80
2019-02-17T08:47:07.240Z,100672.73
2019-02-17T08:50:10.565Z,100667.86
2019-02-17T08:53:13.878Z,100663.48
2019-02-17T08:56:18.650Z,100664.77
2019-02-17T08:59:22.789Z,100664.13
2019-02-17T09:02:26.518Z,100666.38
2019-02-17T09:05:29.481Z,100659.14
2019-02-17T09:08:32.816Z,100662.18
2019-02-17T09:11:35.756Z,100658.55
2019-02-17T09:14:39.412Z,100653.27
2019-02-17T09:17:42.368Z,100654.14
2019-02-17T09:20:45.709Z,100651.73
2019-02-17T09:26:52.480Z,100651.44
2019-02-17T09:29:55.469Z,100653.55
2019-02-17T09:32:58.676Z,100646.38
2019-02-17T09:36:02.019Z,100647.83
2019-02-17T09:39:08.453Z,100645.50
2019-02-17T09:42:11.406Z,100646.55
2019-02-17T09:45:15.892Z,100641.04
2019-02-17T09:48:18.825Z,100643.02
2019-02-17T09:51:22.906Z,100644.34
2019-02-17T09:54:26.665Z,100643.17
2019-02-17T09:57:29.644Z,100639.83
2019-02-17T10:00:32.597Z,100639.84
2019-02-17T10:03:35.542Z,100640.61
2019-02-17T10:06:38.891Z,100638.81
2019-02-17T10:09:42.109Z,100636.55
2019-02-17T10:12:45.915Z,100638.23
2019-02-17T10:15:48.861Z,100630.63
2019-02-17T10:18:52.809Z,100629.77
2019-02-17T10:21:56.208Z,100632.02
2019-02-17T10:24:59.495Z,100628.85
2019-02-17T10:28:02.448Z,100628.78
2019-02-17T10:31:06.211Z,100622.56
2019-02-17T10:34:09.158Z,100624.04
2019-02-17T10:37:13.226Z,100627.98
2019-02-17T10:40:16.323Z,100618.24
2019-02-17T10:43:20.035Z,100619.30
2019-02-17T10:46:23.369Z,100621.34
2019-02-17T10:49:27.099Z,100615.48
2019-02-17T10:52:33.516Z,100614.86
2019-02-17T11:01:39.376Z,100608.97
2019-02-17T11:04:43.229Z,100603.34
2019-02-17T11:07:46.467Z,100604.73
2019-02-17T11:10:50.175Z,100600.92
2019-02-17T11:13:53.833Z,100603.27
2019-02-17T11:16:57.189Z,100602.87
2019-02-17T11:20:00.899Z,100591.38
2019-02-17T11:23:04.326Z,100593.36
2019-02-17T11:26:07.373Z,100593.76
2019-02-17T11:29:10.344Z,100597.24
2019-02-17T11:32:13.643Z,100590.89
2019-02-17T11:35:16.921Z,100590.38
2019-02-17T11:38:21.093Z,100581.84
2019-02-17T11:41:24.054Z,100583.09
2019-02-17T11:44:27.838Z,100580.86
2019-02-17T11:47:31.468Z,100577.64
2019-02-17T11:50:34.444Z,100577.45
2019-02-17T11:53:37.447Z,100565.14
2019-02-17T11:56:42.382Z,100573.26
2019-02-17T11:59:45.809Z,100559.69
2019-02-17T12:02:48.771Z,100559.23
2019-02-17T12:05:51.762Z,100551.14
2019-02-17T12:08:54.724Z,100548.53
2019-02-17T12:11:57.673Z,100539.13
2019-02-17T12:15:00.644Z,100541.24
2019-02-17T12:18:03.946Z,100534.63
2019-02-17T12:21:12.869Z,100532.67
2019-02-17T12:24:22.282Z,100527.55
2019-02-17T12:27:33.114Z,100519.74
2019-02-17T12:30:37.120Z,100518.77
2019-02-17T12:33:40.073Z,100513.09
2019-02-17T12:36:44.804Z,100511.91
2019-02-17T12:39:47.768Z,100513.98
2019-02-17T12:42:51.237Z,100506.61
2019-02-17T12:45:55.384Z,100502.14
2019-02-17T12:48:58.356Z,100493.86
2019-02-17T12:52:02.094Z,100489.89
2019-02-17T12:55:05.482Z,100481.55
2019-02-17T12:58:08.880Z,100481.70
2019-02-17T13:01:13.549Z,100477.95
2019-02-17T13:04:16.588Z,100484.22
2019-02-17T13:07:19.931Z,100482.93
2019-02-17T13:10:22.874Z,100485.06
2019-02-17T13:13:25.833Z,100475.95
2019-02-17T13:16:29.468Z,100474.39
2019-02-17T13:19:33.174Z,100477.20
2019-02-17T13:22:36.977Z,100470.84
2019-02-17T13:25:39.955Z,100468.94
2019-02-17T13:28:42.962Z,100463.30
2019-02-17T13:31:46.252Z,100465.59
2019-02-17T13:34:49.245Z,100462.38
2019-02-17T13:37:52.591Z,100467.42
2019-02-17T13:40:55.537Z,100463.19
2019-02-17T13:43:58.493Z,100459.96
2019-02-17T13:47:02.120Z,100451.66
2019-02-17T13:50:06.957Z,100453.97
2019-02-17T13:53:11.935Z,100451.34
2019-02-17T13:56:15.605Z,100449.85
2019-02-17T13:59:18.571Z,100444.77
2019-02-17T14:02:23.018Z,100450.95
2019-02-17T14:05:25.988Z,100447.08
2019-02-17T14:08:31.264Z,100441.84
2019-02-17T14:11:33.890Z,100442.00
2019-02-17T14:14:38.789Z,100446.36
2019-02-17T14:17:41.995Z,100436.98
2019-02-17T14:20:45.372Z,100433.69
2019-02-17T14:23:48.640Z,100432.73
2019-02-17T14:26:51.912Z,100427.65
2019-02-17T14:29:54.885Z,100430.42
2019-02-17T14:32:57.837Z,100436.66
2019-02-17T14:36:01.066Z,100431.28
2019-02-17T14:39:05.968Z,100427.28
2019-02-17T14:42:10.870Z,100415.95
2019-02-17T14:45:14.071Z,100412.23
2019-02-17T14:48:17.464Z,100412.83
2019-02-17T14:51:20.431Z,100413.43
2019-02-17T14:54:23.728Z,100410.54
2019-02-17T14:57:26.719Z,100414.80
2019-02-17T15:00:29.684Z,100408.80
2019-02-17T15:06:42.271Z,100398.22
2019-02-17T15:09:45.240Z,100394.42
2019-02-17T15:12:48.228Z,100393.91
2019-02-17T15:15:51.193Z,100385.98
2019-02-17T15:18:54.941Z,100392.55
2019-02-17T15:21:57.935Z,100384.09
2019-02-17T15:25:01.443Z,100390.30
2019-02-17T15:28:04.818Z,100386.84
2019-02-17T15:31:07.820Z,100387.23
2019-02-17T15:34:18.386Z,100387.56
2019-02-17T15:37:15.664Z,100386.46
2019-02-17T15:40:19.614Z,100389.80
2019-02-17T15:43:22.587Z,100386.55
2019-02-17T15:46:25.527Z,100380.81
2019-02-17T15:49:28.870Z,100387.02
2019-02-17T15:52:31.845Z,100388.12
2019-02-17T15:55:36.158Z,100389.99
2019-02-17T15:58:39.502Z,100385.00
2019-02-17T16:01:42.441Z,100387.27
2019-02-17T16:04:46.105Z,100387.61
2019-02-17T16:07:49.433Z,100377.45
2019-02-17T16:10:52.688Z,100379.98
2019-02-17T16:13:55.976Z,100374.75
2019-02-17T16:16:59.699Z,100372.97
2019-02-17T16:20:02.926Z,100372.75
2019-02-17T16:23:05.876Z,100379.27
2019-02-17T16:26:09.220Z,100378.34
2019-02-17T16:29:12.224Z,100379.08
2019-02-17T16:32:15.953Z,100381.58
2019-02-17T16:35:19.248Z,100385.17
2019-02-17T16:38:22.631Z,100386.66
2019-02-17T16:41:26.186Z,100380.06
2019-02-17T16:44:29.593Z,100392.01
2019-02-17T16:47:32.613Z,100390.40
2019-02-17T16:50:35.579Z,100388.05
2019-02-17T16:53:40.157Z,100391.99
2019-02-17T16:56:43.106Z,100388.71
2019-02-17T16:59:46.073Z,100386.37
2019-02-17T17:02:49.116Z,100390.33
2019-02-17T17:05:52.845Z,100386.56
2019-02-17T17:08:56.353Z,100381.17
2019-02-17T17:12:00.084Z,100379.95
2019-02-17T17:15:03.281Z,100382.97
2019-02-17T17:18:07.800Z,100377.45
2019-02-17T17:21:10.752Z,100377.22
2019-02-17T17:24:14.031Z,100383.60
2019-02-17T17:27:17.538Z,100378.89
2019-02-17T17:30:20.522Z,100376.48
2019-02-17T17:33:23.460Z,100374.80
2019-02-17T17:36:27.074Z,100372.14
2019-02-17T17:39:30.911Z,100377.50
2019-02-17T17:42:34.299Z,100377.73
2019-02-17T17:45:37.943Z,100391.54
2019-02-17T17:48:42.400Z,100396.43
2019-02-17T17:51:46.142Z,100396.55
2019-02-17T17:54:50.174Z,100393.91
2019-02-17T17:57:53.924Z,100392.27
2019-02-17T18:00:57.990Z,100391.47
2019-02-17T18:04:01.600Z,100389.37
2019-02-17T18:07:04.556Z,100394.27
2019-02-17T18:10:10.713Z,100391.55
2019-02-17T18:13:14.684Z,100399.34
2019-02-17T18:16:17.971Z,100402.33
2019-02-17T18:19:21.037Z,100393.46
2019-02-17T18:22:23.983Z,100396.77
2019-02-17T18:25:26.941Z,100399.48
2019-02-17T18:28:30.287Z,100399.93
2019-02-17T18:31:33.384Z,100401.14
2019-02-17T18:34:36.347Z,100409.07
2019-02-17T18:37:39.696Z,100411.52
2019-02-17T18:40:44.920Z,100422.91
2019-02-17T18:43:48.336Z,100425.05
2019-02-17T18:46:51.301Z,100425.24
2019-02-17T18:49:54.262Z,100430.72
2019-02-17T18:52:58.016Z,100432.10
2019-02-17T18:56:01.401Z,100435.06
2019-02-17T18:59:04.445Z,100438.69
2019-02-17T19:02:07.512Z,100427.95
2019-02-17T19:05:10.679Z,100434.29
2019-02-17T19:08:13.643Z,100431.05
2019-02-17T19:11:17.382Z,100430.16
2019-02-17T19:14:20.680Z,100434.53
2019-02-17T19:17:23.966Z,100427.05
2019-02-17T19:20:26.973Z,100425.25
2019-02-17T19:23:30.238Z,100429.47
2019-02-17T19:26:33.600Z,100425.59
2019-02-17T19:29:37.102Z,100422.96
2019-02-17T19:32:40.130Z,100426.48
2019-02-17T19:35:43.094Z,100424.59
2019-02-17T19:38:46.326Z,100424.45
2019-02-17T19:41:50.319Z,100429.71
2019-02-17T19:44:53.268Z,100429.20
2019-02-17T19:47:56.229Z,100430.77
2019-02-17T19:50:59.190Z,100430.16
2019-02-17T19:54:02.143Z,100444.34
2019-02-17T19:57:05.477Z,100439.52
2019-02-17T20:00:11.024Z,100437.50
2019-02-17T20:03:32.864Z,100430.09
2019-02-17T20:06:36.575Z,100431.96
2019-02-17T20:09:39.930Z,100430.19
2019-02-17T20:12:43.329Z,100437.47
2019-02-17T20:15:46.273Z,100440.45
2019-02-17T20:18:49.246Z,100443.23
2019-02-17T20:21:52.204Z,100447.30
2019-02-17T20:24:55.276Z,100445.80
2019-02-17T20:27:58.239Z,100453.86
2019-02-17T20:31:01.289Z,100456.91
2019-02-17T20:34:04.599Z,100452.27
2019-02-17T20:37:07.607Z,100452.07
2019-02-17T20:40:10.599Z,100458.73
2019-02-17T20:43:13.565Z,100457.23
2019-02-17T20:46:16.525Z,100467.55
2019-02-17T20:49:19.881Z,100469.74
2019-02-17T20:52:22.850Z,100470.93
2019-02-17T20:55:26.140Z,100466.31
2019-02-17T20:58:29.116Z,100456.59
2019-02-17T21:01:32.445Z,100463.26
2019-02-17T21:04:35.544Z,100453.77
2019-02-17T21:07:38.931Z,100460.87
2019-02-17T21:10:41.876Z,100459.59
2019-02-17T21:13:45.170Z,100459.55
2019-02-17T21:16:48.144Z,100458.59
2019-02-17T21:19:52.581Z,100463.12
2019-02-17T21:22:56.791Z,100461.10
2019-02-17T21:25:59.723Z,100457.75
2019-02-17T21:29:03.614Z,100462.12
2019-02-17T21:32:06.662Z,100466.42
2019-02-17T21:35:11.136Z,100471.73
2019-02-17T21:38:14.469Z,100472.30
2019-02-17T21:41:17.831Z,100480.55
2019-02-17T21:44:21.475Z,100481.55
2019-02-17T21:47:24.456Z,100483.75
2019-02-17T21:50:27.514Z,100478.77
2019-02-17T21:53:30.453Z,100484.88
2019-02-17T21:56:34.092Z,100484.19
2019-02-17T21:59:37.360Z,100479.95
2019-02-17T22:02:41.128Z,100475.98
2019-02-17T22:05:44.997Z,100476.30
2019-02-17T22:08:47.964Z,100468.37
2019-02-17T22:11:51.480Z,100474.41
2019-02-17T22:14:55.523Z,100476.28
2019-02-17T22:17:59.008Z,100475.48
2019-02-17T22:21:02.306Z,100468.25
2019-02-17T22:24:05.904Z,100475.92
2019-02-17T22:27:08.998Z,100470.56
2019-02-17T22:30:12.110Z,100465.42
2019-02-17T22:33:15.173Z,100467.48
2019-02-17T22:36:18.247Z,100466.22
2019-02-17T22:39:21.669Z,100449.20
2019-02-17T22:42:25.177Z,100464.36
2019-02-17T22:45:29.387Z,100463.50
2019-02-17T22:48:32.667Z,100459.45
2019-02-17T22:51:35.980Z,100456.95
2019-02-17T22:54:39.034Z,100451.77
2019-02-17T22:57:42.457Z,100454.84
2019-02-17T23:01:00.715Z,100449.39
2019-02-17T23:04:06.047Z,100458.74
2019-02-17T23:07:09.191Z,100457.16
2019-02-17T23:10:12.435Z,100468.09
2019-02-17T23:13:15.497Z,100462.57
2019-02-17T23:16:18.532Z,100460.27
2019-02-17T23:19:21.495Z,100466.95
2019-02-17T23:22:24.833Z,100456.39
2019-02-17T23:25:28.138Z,100454.27
2019-02-17T23:28:31.504Z,100458.58
2019-02-17T23:31:34.555Z,100468.27
2019-02-17T23:34:37.513Z,100465.57
2019-02-17T23:37:40.790Z,100457.84
2019-02-17T23:40:43.749Z,100466.22
2019-02-17T23:43:46.723Z,100466.27
2019-02-17T23:46:50.389Z,100463.82
2019-02-17T23:49:53.666Z,100464.88
2019-02-17T23:52:56.621Z,100465.20
2019-02-17T23:55:59.955Z,100462.31
2019-02-17T23:59:03.211Z,100458.11
